createdAt,value
2023-04-02T00:00:27.807Z,97.89
2023-04-02T00:01:27.809Z,98.24
2023-04-02T00:02:27.929Z,98.55
2023-04-02T00:03:27.864Z,98.55
2023-04-02T00:04:27.774Z,97.94
2023-04-02T00:05:27.754Z,98.29
2023-04-02T00:06:27.748Z,98.70
2023-04-02T00:07:27.729Z,98.70
2023-04-02T00:08:27.727Z,98.70
2023-04-02T00:09:27.750Z,98.60
2023-04-02T00:10:27.714Z,98.80
2023-04-02T00:11:27.698Z,99.26
2023-04-02T00:12:27.700Z,99.01
2023-04-02T00:13:27.673Z,98.65
2023-04-02T00:14:27.680Z,99.26
2023-04-02T00:15:27.653Z,98.75
2023-04-02T00:16:27.657Z,99.06
2023-04-02T00:17:27.639Z,98.85
2023-04-02T00:18:27.680Z,99.06
2023-04-02T00:19:27.632Z,99.99
2023-04-02T00:20:27.610Z,99.26
2023-04-02T00:21:27.596Z,99.52
2023-04-02T00:22:27.584Z,99.99
2023-04-02T00:23:27.570Z,99.99
2023-04-02T00:24:27.580Z,99.88
2023-04-02T00:25:27.557Z,99.88
2023-04-02T00:26:27.540Z,99.78
2023-04-02T00:27:27.534Z,99.82
2023-04-02T00:28:27.535Z,99.93
2023-04-02T00:29:27.551Z,99.72
2023-04-02T00:30:27.531Z,99.93
2023-04-02T00:31:27.529Z,99.41
2023-04-02T00:32:27.553Z,99.88
2023-04-02T00:33:27.489Z,99.52
2023-04-02T00:34:27.485Z,99.62
2023-04-02T00:35:27.478Z,99.52
2023-04-02T00:36:27.441Z,99.62
2023-04-02T00:37:27.445Z,99.99
2023-04-02T00:38:27.418Z,99.99
2023-04-02T00:39:27.430Z,99.99
2023-04-02T00:40:27.422Z,99.99
2023-04-02T00:41:27.403Z,99.66
2023-04-02T00:42:27.378Z,99.77
2023-04-02T00:43:27.363Z,99.66
2023-04-02T00:44:27.384Z,99.66
2023-04-02T00:45:27.340Z,99.66
2023-04-02T00:46:27.496Z,99.77
2023-04-02T00:47:27.365Z,99.56
2023-04-02T00:48:27.309Z,99.99
2023-04-02T00:49:27.320Z,99.61
2023-04-02T00:50:27.306Z,99.71
2023-04-02T00:51:27.278Z,99.77
2023-04-02T00:52:27.274Z,99.61
2023-04-02T00:53:27.250Z,99.71
2023-04-02T00:54:27.258Z,99.66
2023-04-02T00:55:27.244Z,99.99
2023-04-02T00:56:27.219Z,99.98
2023-04-02T00:57:27.237Z,99.71
2023-04-02T00:58:27.202Z,99.99
2023-04-02T00:59:27.214Z,99.71
2023-04-02T01:00:27.168Z,99.71
2023-04-02T01:01:27.236Z,99.71
2023-04-02T01:02:27.219Z,99.71
2023-04-02T01:03:27.208Z,99.99
2023-04-02T01:04:27.140Z,99.82
2023-04-02T01:05:27.124Z,99.71
2023-04-02T01:06:27.105Z,99.92
2023-04-02T01:07:27.085Z,99.96
2023-04-02T01:08:27.082Z,99.76
2023-04-02T01:09:27.102Z,99.82
2023-04-02T01:10:27.071Z,99.65
2023-04-02T01:11:27.076Z,99.99
2023-04-02T01:12:27.037Z,99.76
2023-04-02T01:13:27.021Z,99.86
2023-04-02T01:14:27.026Z,99.65
2023-04-02T01:15:26.990Z,99.65
2023-04-02T01:16:27.091Z,99.76
2023-04-02T01:17:27.021Z,99.65
2023-04-02T01:18:26.976Z,99.99
2023-04-02T01:19:26.987Z,99.99
2023-04-02T01:20:26.950Z,99.65
2023-04-02T01:21:26.938Z,99.76
2023-04-02T01:22:26.916Z,99.76
2023-04-02T01:23:26.904Z,99.76
2023-04-02T01:24:26.961Z,99.65
2023-04-02T01:25:26.890Z,99.86
2023-04-02T01:26:26.895Z,99.65
2023-04-02T01:27:26.869Z,99.70
2023-04-02T01:28:26.856Z,99.76
2023-04-02T01:29:26.854Z,99.96
2023-04-02T01:30:26.836Z,99.70
2023-04-02T01:31:26.893Z,99.80
2023-04-02T01:32:26.817Z,99.91
2023-04-02T01:33:26.806Z,99.99
2023-04-02T01:34:26.920Z,99.70
2023-04-02T01:35:26.769Z,99.80
2023-04-02T01:36:26.778Z,99.91
2023-04-02T01:37:26.742Z,99.91
2023-04-02T01:38:27.752Z,99.91
2023-04-02T01:39:26.756Z,99.91
2023-04-02T01:40:26.717Z,99.91
2023-04-02T01:41:26.706Z,99.99
2023-04-02T01:42:26.709Z,99.99
2023-04-02T01:43:26.688Z,99.80
2023-04-02T01:44:26.675Z,99.91
2023-04-02T01:45:26.681Z,99.80
2023-04-02T01:46:26.740Z,99.99
2023-04-02T01:47:26.659Z,99.95
2023-04-02T01:48:26.634Z,99.85
2023-04-02T01:49:26.606Z,99.85
2023-04-02T01:50:26.628Z,99.99
2023-04-02T01:51:26.585Z,99.74
2023-04-02T01:52:26.570Z,99.99
2023-04-02T01:53:26.558Z,99.99
2023-04-02T01:54:26.553Z,99.70
2023-04-02T01:55:26.549Z,99.99
2023-04-02T01:56:26.518Z,99.64
2023-04-02T01:57:26.535Z,99.99
2023-04-02T01:58:26.532Z,99.99
2023-04-02T01:59:26.534Z,99.95
2023-04-02T02:00:26.565Z,99.99
2023-04-02T02:01:26.498Z,99.54
2023-04-02T02:02:26.546Z,99.99
2023-04-02T02:03:26.472Z,99.99
2023-04-02T02:04:26.431Z,99.54
2023-04-02T02:05:26.448Z,99.99
2023-04-02T02:06:26.419Z,99.64
2023-04-02T02:07:26.416Z,99.64
2023-04-02T02:08:26.391Z,99.99
2023-04-02T02:09:26.380Z,99.95
2023-04-02T02:10:26.400Z,99.95
2023-04-02T02:11:26.362Z,99.99
2023-04-02T02:12:26.348Z,99.99
2023-04-02T02:13:26.334Z,99.39
2023-04-02T02:14:26.334Z,99.99
2023-04-02T02:15:26.322Z,99.64
2023-04-02T02:16:26.375Z,99.64
2023-04-02T02:17:26.322Z,99.99
2023-04-02T02:18:26.317Z,99.99
2023-04-02T02:19:26.276Z,99.99
2023-04-02T02:20:26.320Z,99.95
2023-04-02T02:21:26.262Z,99.99
2023-04-02T02:22:26.244Z,99.99
2023-04-02T02:23:26.250Z,99.69
2023-04-02T02:24:26.218Z,99.99
2023-04-02T02:25:26.200Z,99.99
2023-04-02T02:26:26.197Z,99.64
2023-04-02T02:27:26.184Z,99.69
2023-04-02T02:28:26.188Z,99.64
2023-04-02T02:29:26.161Z,99.64
2023-04-02T02:30:26.147Z,99.99
2023-04-02T02:31:26.167Z,99.64
2023-04-02T02:32:26.170Z,99.95
2023-04-02T02:33:26.170Z,99.99
2023-04-02T02:34:26.106Z,99.99
2023-04-02T02:35:26.117Z,99.99
2023-04-02T02:36:26.158Z,99.99
2023-04-02T02:37:26.090Z,99.99
2023-04-02T02:38:26.079Z,99.99
2023-04-02T02:39:26.049Z,99.99
2023-04-02T02:40:26.070Z,99.99
2023-04-02T02:41:26.035Z,99.99
2023-04-02T02:42:26.020Z,99.99
2023-04-02T02:43:26.016Z,99.99
2023-04-02T02:44:25.991Z,99.99
2023-04-02T02:45:26.013Z,99.99
2023-04-02T02:46:26.139Z,99.99
2023-04-02T02:47:26.048Z,99.99
2023-04-02T02:48:26.005Z,99.99
2023-04-02T02:49:26.042Z,99.99
2023-04-02T02:50:25.916Z,99.99
2023-04-02T02:51:26.001Z,99.99
2023-04-02T02:52:25.902Z,99.99
2023-04-02T02:53:25.890Z,99.99
2023-04-02T02:54:25.908Z,99.99
2023-04-02T02:55:25.904Z,99.99
2023-04-02T02:56:25.859Z,99.99
2023-04-02T02:57:25.968Z,99.99
2023-04-02T02:58:25.828Z,99.99
2023-04-02T02:59:25.822Z,99.90
2023-04-02T03:00:25.850Z,99.99
2023-04-02T03:01:25.829Z,99.99
2023-04-02T03:02:25.861Z,99.99
2023-04-02T03:03:26.947Z,99.90
2023-04-02T03:04:25.811Z,99.84
2023-04-02T03:05:25.765Z,99.84
2023-04-02T03:06:25.747Z,99.52
2023-04-02T03:07:25.737Z,99.84
2023-04-02T03:08:25.732Z,99.99
2023-04-02T03:09:25.709Z,99.94
2023-04-02T03:10:25.730Z,99.84
2023-04-02T03:11:25.682Z,99.99
2023-04-02T03:12:25.672Z,99.99
2023-04-02T03:13:25.675Z,99.99
2023-04-02T03:14:25.713Z,99.99
2023-04-02T03:15:25.666Z,99.84
2023-04-02T03:16:25.679Z,99.99
2023-04-02T03:17:25.656Z,99.99
2023-04-02T03:18:25.609Z,99.99
2023-04-02T03:19:25.599Z,99.99
2023-04-02T03:20:25.615Z,99.99
2023-04-02T03:21:25.600Z,99.99
2023-04-02T03:22:25.569Z,99.94
2023-04-02T03:23:25.568Z,99.99
2023-04-02T03:24:25.558Z,99.99
2023-04-02T03:25:25.565Z,99.99
2023-04-02T03:26:25.544Z,99.99
2023-04-02T03:27:25.535Z,99.99
2023-04-02T03:28:25.523Z,99.99
2023-04-02T03:29:25.531Z,99.99
2023-04-02T03:30:25.493Z,99.99
2023-04-02T03:31:25.553Z,99.99
2023-04-02T03:32:25.564Z,99.99
2023-04-02T03:33:25.478Z,99.99
2023-04-02T03:34:25.475Z,99.99
2023-04-02T03:35:25.466Z,99.99
2023-04-02T03:36:25.431Z,99.99
2023-04-02T03:37:25.430Z,99.99
2023-04-02T03:38:25.409Z,99.99
2023-04-02T03:39:25.407Z,99.99
2023-04-02T03:40:25.415Z,99.99
2023-04-02T03:41:25.389Z,99.99
2023-04-02T03:42:25.376Z,99.99
2023-04-02T03:43:25.356Z,99.99
2023-04-02T03:44:25.352Z,99.99
2023-04-02T03:45:25.363Z,99.99
2023-04-02T03:46:25.404Z,99.99
2023-04-02T03:47:25.318Z,99.99
2023-04-02T03:48:25.301Z,99.99
2023-04-02T03:49:25.293Z,99.99
2023-04-02T03:50:25.313Z,99.99
2023-04-02T03:51:25.266Z,99.99
2023-04-02T03:52:25.258Z,99.99
2023-04-02T03:53:25.245Z,99.99
2023-04-02T03:54:25.240Z,99.99
2023-04-02T03:55:25.238Z,99.99
2023-04-02T03:56:25.214Z,99.99
2023-04-02T03:57:25.221Z,99.99
2023-04-02T03:58:25.191Z,99.99
2023-04-02T03:59:25.197Z,99.99
2023-04-02T04:00:25.184Z,99.99
2023-04-02T04:01:25.154Z,99.99
2023-04-02T04:02:25.175Z,99.99
2023-04-02T04:03:25.133Z,99.99
2023-04-02T04:04:25.195Z,99.99
2023-04-02T04:05:25.128Z,99.99
2023-04-02T04:06:25.098Z,99.99
2023-04-02T04:07:25.098Z,99.99
2023-04-02T04:08:25.080Z,99.99
2023-04-02T04:09:25.073Z,99.99
2023-04-02T04:10:25.079Z,99.99
2023-04-02T04:11:25.107Z,99.68
2023-04-02T04:12:26.033Z,99.93
2023-04-02T04:13:25.026Z,99.72
2023-04-02T04:14:25.011Z,99.99
2023-04-02T04:15:25.064Z,99.93
2023-04-02T04:16:25.022Z,99.99
2023-04-02T04:17:25.054Z,99.52
2023-04-02T04:18:24.959Z,99.52
2023-04-02T04:19:24.963Z,99.31
2023-04-02T04:20:24.956Z,98.90
2023-04-02T04:21:24.933Z,99.25
2023-04-02T04:22:24.931Z,99.93
2023-04-02T04:23:24.913Z,99.46
2023-04-02T04:24:24.909Z,99.77
2023-04-02T04:25:24.927Z,99.72
2023-04-02T04:26:24.927Z,99.04
2023-04-02T04:27:24.878Z,99.04
2023-04-02T04:28:24.857Z,99.35
2023-04-02T04:29:24.843Z,99.41
2023-04-02T04:30:24.857Z,99.66
2023-04-02T04:31:25.947Z,99.66
2023-04-02T04:32:25.818Z,99.66
2023-04-02T04:33:24.794Z,99.56
2023-04-02T04:34:24.797Z,99.35
2023-04-02T04:35:25.874Z,99.77
2023-04-02T04:36:24.777Z,99.77
2023-04-02T04:37:24.751Z,99.35
2023-04-02T04:38:24.742Z,99.77
2023-04-02T04:39:24.743Z,99.35
2023-04-02T04:40:24.747Z,99.87
2023-04-02T04:41:24.706Z,99.56
2023-04-02T04:42:24.715Z,99.56
2023-04-02T04:43:24.691Z,99.35
2023-04-02T04:44:24.698Z,99.15
2023-04-02T04:45:24.738Z,99.25
2023-04-02T04:46:24.698Z,99.15
2023-04-02T04:47:24.668Z,99.25
2023-04-02T04:48:24.637Z,99.19
2023-04-02T04:49:24.645Z,99.15
2023-04-02T04:50:24.648Z,99.04
2023-04-02T04:51:24.617Z,99.25
2023-04-02T04:52:24.608Z,99.15
2023-04-02T04:53:24.595Z,99.09
2023-04-02T04:54:24.587Z,99.30
2023-04-02T04:55:24.604Z,99.09
2023-04-02T04:56:24.566Z,99.30
2023-04-02T04:57:24.674Z,99.15
2023-04-02T04:58:24.550Z,99.25
2023-04-02T04:59:25.562Z,99.66
2023-04-02T05:00:24.543Z,99.30
2023-04-02T05:01:24.550Z,99.40
2023-04-02T05:02:24.600Z,99.30
2023-04-02T05:03:24.503Z,99.51
2023-04-02T05:04:24.519Z,99.30
2023-04-02T05:05:24.523Z,99.55
2023-04-02T05:06:24.471Z,98.78
2023-04-02T05:07:24.466Z,98.57
2023-04-02T05:08:24.449Z,99.09
2023-04-02T05:09:24.439Z,98.72
2023-04-02T05:10:24.457Z,98.93
2023-04-02T05:11:24.423Z,98.78
2023-04-02T05:12:25.405Z,99.30
2023-04-02T05:13:24.397Z,98.93
2023-04-02T05:14:24.395Z,98.61
2023-04-02T05:15:24.399Z,99.44
2023-04-02T05:16:24.432Z,99.51
2023-04-02T05:17:24.415Z,99.30
2023-04-02T05:18:24.364Z,99.40
2023-04-02T05:19:24.336Z,99.30
2023-04-02T05:20:24.327Z,98.99
2023-04-02T05:21:24.357Z,99.19
2023-04-02T05:22:24.315Z,99.24
2023-04-02T05:23:24.325Z,99.03
2023-04-02T05:24:24.290Z,98.99
2023-04-02T05:25:24.281Z,99.03
2023-04-02T05:26:24.299Z,98.93
2023-04-02T05:27:24.256Z,99.03
2023-04-02T05:28:24.248Z,99.24
2023-04-02T05:29:24.239Z,99.13
2023-04-02T05:30:24.239Z,99.24
2023-04-02T05:31:24.263Z,99.18
2023-04-02T05:32:24.213Z,98.97
2023-04-02T05:33:24.189Z,98.93
2023-04-02T05:34:24.233Z,98.97
2023-04-02T05:35:24.176Z,99.18
2023-04-02T05:36:24.200Z,98.72
2023-04-02T05:37:24.153Z,98.72
2023-04-02T05:38:24.148Z,98.66
2023-04-02T05:39:24.139Z,98.61
2023-04-02T05:40:24.132Z,98.66
2023-04-02T05:41:24.135Z,98.10
2023-04-02T05:42:24.107Z,98.55
2023-04-02T05:43:24.092Z,98.55
2023-04-02T05:44:24.088Z,98.55
2023-04-02T05:45:24.077Z,98.66
2023-04-02T05:46:24.115Z,98.76
2023-04-02T05:47:24.086Z,98.66
2023-04-02T05:48:24.096Z,98.50
2023-04-02T05:49:24.033Z,98.60
2023-04-02T05:50:24.021Z,97.93
2023-04-02T05:51:24.047Z,98.39
2023-04-02T05:52:24.020Z,98.66
2023-04-02T05:53:23.985Z,98.60
2023-04-02T05:54:23.988Z,98.29
2023-04-02T05:55:23.985Z,98.19
2023-04-02T05:56:23.958Z,98.29
2023-04-02T05:57:39.412Z,98.35
2023-04-02T05:59:24.952Z,98.08
2023-04-02T06:00:23.930Z,98.19
2023-04-02T06:01:23.917Z,98.39
2023-04-02T06:02:23.961Z,98.39
2023-04-02T06:03:23.937Z,98.08
2023-04-02T06:04:23.894Z,98.60
2023-04-02T06:05:23.872Z,98.13
2023-04-02T06:06:23.877Z,98.19
2023-04-02T06:07:23.892Z,98.19
2023-04-02T06:08:23.854Z,97.77
2023-04-02T06:09:23.833Z,98.50
2023-04-02T06:11:42.797Z,98.39
2023-04-02T06:12:42.852Z,98.29
2023-04-02T06:13:42.803Z,98.44
2023-04-02T06:14:42.793Z,97.81
2023-04-02T06:15:42.773Z,97.81
2023-04-02T06:16:42.938Z,97.56
2023-04-02T06:17:42.799Z,98.23
2023-04-02T06:18:42.742Z,97.71
2023-04-02T06:19:42.742Z,97.81
2023-04-02T06:20:42.724Z,97.61
2023-04-02T06:21:42.731Z,97.71
2023-04-02T06:22:42.699Z,97.61
2023-04-02T06:23:42.693Z,97.92
2023-04-02T06:24:42.685Z,97.92
2023-04-02T06:25:42.678Z,97.71
2023-04-02T06:26:42.684Z,97.92
2023-04-02T06:27:42.659Z,97.71
2023-04-02T06:28:42.647Z,97.61
2023-04-02T06:29:42.644Z,97.40
2023-04-02T06:30:42.647Z,97.50
2023-04-02T06:31:42.672Z,97.50
2023-04-02T06:32:42.642Z,97.35
2023-04-02T06:33:43.730Z,97.30
2023-04-02T06:34:43.718Z,97.81
2023-04-02T06:35:43.726Z,97.71
2023-04-02T06:36:43.721Z,97.50
2023-04-02T06:37:43.703Z,96.88
2023-04-02T06:38:43.668Z,96.94
2023-04-02T06:39:43.668Z,96.57
2023-04-02T06:40:43.656Z,97.25
2023-04-02T06:41:43.649Z,96.57
2023-04-02T06:42:43.689Z,96.67
2023-04-02T06:43:43.618Z,96.52
2023-04-02T06:44:43.613Z,96.47
2023-04-02T06:45:43.635Z,96.62
2023-04-02T06:46:43.625Z,96.73
2023-04-02T06:47:43.609Z,96.21
2023-04-02T06:48:43.577Z,95.94
2023-04-02T06:49:43.568Z,96.21
2023-04-02T06:50:43.565Z,95.79
2023-04-02T06:51:43.581Z,95.84
2023-04-02T06:52:43.542Z,95.59
2023-04-02T06:53:43.533Z,95.90
2023-04-02T06:54:43.572Z,96.21
2023-04-02T06:55:43.504Z,95.90
2023-04-02T06:56:44.543Z,95.94
2023-04-02T06:57:43.510Z,95.69
2023-04-02T06:58:43.493Z,95.69
2023-04-02T06:59:43.468Z,95.90
2023-04-02T07:00:43.469Z,95.94
2023-04-02T07:01:43.520Z,95.90
2023-04-02T07:02:43.452Z,95.48
2023-04-02T07:03:43.452Z,95.38
2023-04-02T07:04:43.459Z,94.96
2023-04-02T07:05:43.409Z,95.07
2023-04-02T07:06:43.428Z,95.17
2023-04-02T07:07:43.399Z,94.76
2023-04-02T07:08:43.378Z,95.28
2023-04-02T07:09:43.381Z,95.38
2023-04-02T07:10:43.357Z,95.48
2023-04-02T07:11:43.372Z,95.59
2023-04-02T07:12:43.347Z,95.59
2023-04-02T07:13:43.336Z,94.86
2023-04-02T07:14:43.318Z,94.13
2023-04-02T07:15:43.370Z,94.20
2023-04-02T07:16:43.335Z,94.51
2023-04-02T07:17:43.348Z,93.78
2023-04-02T07:18:43.289Z,93.99
2023-04-02T07:19:43.277Z,94.09
2023-04-02T07:20:43.300Z,93.68
2023-04-02T07:21:43.298Z,93.99
2023-04-02T07:22:43.255Z,93.62
2023-04-02T07:23:43.234Z,93.16
2023-04-02T07:24:43.232Z,93.26
2023-04-02T07:25:43.222Z,93.57
2023-04-02T07:26:43.226Z,93.26
2023-04-02T07:27:43.196Z,93.16
2023-04-02T07:28:43.189Z,93.20
2023-04-02T07:29:43.193Z,93.05
2023-04-02T07:30:43.168Z,93.05
2023-04-02T07:31:43.219Z,93.41
2023-04-02T07:32:43.150Z,93.72
2023-04-02T07:33:43.124Z,93.82
2023-04-02T07:34:43.121Z,93.41
2023-04-02T07:35:43.106Z,93.68
2023-04-02T07:36:43.132Z,93.16
2023-04-02T07:37:43.084Z,92.63
2023-04-02T07:38:43.075Z,92.63
2023-04-02T07:39:43.068Z,92.84
2023-04-02T07:40:43.068Z,92.11
2023-04-02T07:41:43.069Z,92.74
2023-04-02T07:42:43.035Z,92.43
2023-04-02T07:43:44.019Z,92.32
2023-04-02T07:44:43.019Z,92.63
2023-04-02T07:45:43.011Z,92.53
2023-04-02T07:46:43.020Z,92.43
2023-04-02T07:47:43.045Z,92.63
2023-04-02T07:48:42.994Z,92.32
2023-04-02T07:49:42.979Z,92.32
2023-04-02T07:50:42.942Z,92.22
2023-04-02T07:51:42.964Z,92.43
2023-04-02T07:52:42.929Z,92.43
2023-04-02T07:53:42.935Z,92.18
2023-04-02T07:54:42.907Z,92.32
2023-04-02T07:55:42.902Z,92.07
2023-04-02T07:56:42.904Z,91.80
2023-04-02T07:57:45.662Z,92.43
2023-04-02T07:58:42.869Z,92.43
2023-04-02T07:59:42.853Z,92.11
2023-04-02T08:00:43.840Z,91.80
2023-04-02T08:01:43.058Z,91.85
2023-04-02T08:02:42.848Z,91.80
2023-04-02T08:03:42.957Z,91.39
2023-04-02T08:04:42.794Z,91.70
2023-04-02T08:05:42.776Z,91.60
2023-04-02T08:06:43.788Z,91.64
2023-04-02T08:07:42.776Z,91.74
2023-04-02T08:08:42.753Z,91.85
2023-04-02T08:09:42.763Z,91.95
2023-04-02T08:10:42.727Z,92.26
2023-04-02T08:11:42.712Z,92.22
2023-04-02T08:12:42.702Z,92.47
2023-04-02T08:13:42.700Z,92.26
2023-04-02T08:14:42.713Z,92.57
2023-04-02T08:15:42.715Z,92.74
2023-04-02T08:16:42.704Z,92.99
2023-04-02T08:17:42.675Z,94.13
2023-04-02T08:18:42.646Z,93.62
2023-04-02T08:19:54.166Z,93.62
2023-04-02T08:20:44.635Z,93.10
2023-04-02T08:21:42.618Z,92.99
2023-04-02T08:22:42.606Z,93.30
2023-04-02T08:23:42.587Z,93.30
2023-04-02T08:24:42.619Z,93.51
2023-04-02T08:25:42.587Z,93.30
2023-04-02T08:26:43.965Z,93.82
2023-04-02T08:27:42.571Z,93.55
2023-04-02T08:28:42.534Z,93.51
2023-04-02T08:29:42.521Z,93.30
2023-04-02T08:30:42.530Z,93.82
2023-04-02T08:31:42.524Z,93.82
2023-04-02T08:32:42.574Z,93.51
2023-04-02T08:33:42.480Z,93.51
2023-04-02T08:34:42.472Z,93.30
2023-04-02T08:35:42.491Z,92.99
2023-04-02T08:36:42.487Z,93.41
2023-04-02T08:37:42.444Z,93.16
2023-04-02T08:38:42.431Z,93.41
2023-04-02T08:39:42.414Z,93.16
2023-04-02T08:40:42.404Z,93.26
2023-04-02T08:41:42.435Z,93.57
2023-04-02T08:42:42.404Z,92.80
2023-04-02T08:43:42.371Z,92.11
2023-04-02T08:44:42.364Z,92.28
2023-04-02T08:45:42.552Z,92.38
2023-04-02T08:46:42.361Z,91.76
2023-04-02T08:47:42.377Z,91.97
2023-04-02T08:48:42.777Z,92.49
2023-04-02T08:49:43.310Z,91.35
2023-04-02T08:50:43.294Z,91.03
2023-04-02T08:51:42.283Z,91.03
2023-04-02T08:52:42.283Z,91.10
2023-04-02T08:53:42.258Z,90.93
2023-04-02T08:54:42.233Z,91.00
2023-04-02T08:55:42.230Z,91.10
2023-04-02T08:56:42.228Z,91.20
2023-04-02T08:57:42.231Z,90.93
2023-04-02T08:58:42.191Z,90.69
2023-04-02T08:59:42.193Z,90.58
2023-04-02T09:00:42.165Z,90.17
2023-04-02T09:01:42.251Z,89.75
2023-04-02T09:02:42.232Z,89.75
2023-04-02T09:03:42.143Z,89.58
2023-04-02T09:04:42.166Z,89.69
2023-04-02T09:05:42.112Z,89.48
2023-04-02T09:06:42.102Z,89.65
2023-04-02T09:07:42.125Z,89.54
2023-04-02T09:08:42.074Z,89.34
2023-04-02T09:09:42.068Z,89.86
2023-04-02T09:10:42.086Z,89.54
2023-04-02T09:11:42.039Z,89.65
2023-04-02T09:12:42.362Z,89.44
2023-04-02T09:13:43.035Z,89.54
2023-04-02T09:14:42.013Z,89.34
2023-04-02T09:15:42.045Z,89.65
2023-04-02T09:16:41.973Z,89.44
2023-04-02T09:17:53.229Z,89.65
2023-04-02T09:18:43.991Z,89.03
2023-04-02T09:19:41.962Z,89.03
2023-04-02T09:20:41.938Z,89.23
2023-04-02T09:21:41.948Z,89.13
2023-04-02T09:22:41.940Z,88.71
2023-04-02T09:23:41.908Z,88.82
2023-04-02T09:24:41.898Z,88.46
2023-04-02T09:25:42.205Z,89.19
2023-04-02T09:26:41.866Z,88.78
2023-04-02T09:27:41.881Z,88.88
2023-04-02T09:28:41.849Z,88.98
2023-04-02T09:29:41.868Z,88.98
2023-04-02T09:30:41.838Z,88.98
2023-04-02T09:31:41.902Z,88.84
2023-04-02T09:32:41.843Z,88.42
2023-04-02T09:33:41.790Z,88.36
2023-04-02T09:34:41.783Z,88.26
2023-04-02T09:35:41.918Z,88.15
2023-04-02T09:36:42.754Z,88.15
2023-04-02T09:37:41.771Z,88.01
2023-04-02T09:38:41.748Z,87.74
2023-04-02T09:39:41.727Z,86.91
2023-04-02T09:40:41.714Z,86.49
2023-04-02T09:41:41.706Z,86.15
2023-04-02T09:42:41.774Z,86.60
2023-04-02T09:43:41.674Z,85.35
2023-04-02T09:44:41.664Z,84.94
2023-04-02T09:45:41.651Z,84.80
2023-04-02T09:46:41.689Z,84.83
2023-04-02T09:47:42.305Z,84.69
2023-04-02T09:48:42.615Z,84.73
2023-04-02T09:49:41.609Z,84.59
2023-04-02T09:50:41.610Z,84.63
2023-04-02T09:51:41.588Z,84.21
2023-04-02T09:52:41.601Z,84.52
2023-04-02T09:53:42.599Z,84.90
2023-04-02T09:54:41.572Z,84.59
2023-04-02T09:55:41.561Z,84.52
2023-04-02T09:56:41.547Z,84.69
2023-04-02T09:57:41.541Z,84.59
2023-04-02T09:58:41.502Z,84.90
2023-04-02T09:59:41.492Z,84.80
2023-04-02T10:00:42.143Z,84.28
2023-04-02T10:01:42.606Z,84.17
2023-04-02T10:02:41.585Z,84.07
2023-04-02T10:03:41.443Z,84.17
2023-04-02T10:04:41.578Z,83.86
2023-04-02T10:05:41.770Z,83.65
2023-04-02T10:06:41.412Z,83.65
2023-04-02T10:07:41.470Z,83.17
2023-04-02T10:08:41.386Z,82.62
2023-04-02T10:09:41.377Z,83.03
2023-04-02T10:10:42.377Z,82.14
2023-04-02T10:11:46.555Z,82.45
2023-04-02T10:12:43.391Z,83.34
2023-04-02T10:13:41.354Z,82.72
2023-04-02T10:14:41.333Z,83.24
2023-04-02T10:15:41.320Z,82.76
2023-04-02T10:16:41.328Z,82.62
2023-04-02T10:17:41.339Z,83.03
2023-04-02T10:18:41.281Z,82.51
2023-04-02T10:19:41.275Z,82.20
2023-04-02T10:20:50.565Z,82.82
2023-04-02T10:21:43.257Z,82.82
2023-04-02T10:22:41.262Z,83.24
2023-04-02T10:23:41.217Z,82.51
2023-04-02T10:24:41.238Z,82.58
2023-04-02T10:25:41.203Z,83.03
2023-04-02T10:26:41.198Z,82.48
2023-04-02T10:27:41.201Z,81.65
2023-04-02T10:28:41.171Z,81.34
2023-04-02T10:29:41.151Z,81.27
2023-04-02T10:30:41.160Z,80.92
2023-04-02T10:31:41.146Z,80.71
2023-04-02T10:32:41.153Z,80.30
2023-04-02T10:33:41.125Z,80.57
2023-04-02T10:34:42.825Z,80.68
2023-04-02T10:35:41.120Z,80.78
2023-04-02T10:36:41.076Z,80.51
2023-04-02T10:37:41.087Z,80.51
2023-04-02T10:38:41.054Z,80.82
2023-04-02T10:39:41.041Z,80.92
2023-04-02T10:40:41.043Z,80.88
2023-04-02T10:41:41.072Z,81.09
2023-04-02T10:42:41.057Z,80.88
2023-04-02T10:43:40.992Z,80.88
2023-04-02T10:44:41.990Z,81.20
2023-04-02T10:45:41.103Z,81.20
2023-04-02T10:46:41.036Z,81.40
2023-04-02T10:47:41.019Z,81.47
2023-04-02T10:48:40.948Z,81.37
2023-04-02T10:49:41.035Z,80.26
2023-04-02T10:50:40.923Z,80.26
2023-04-02T10:51:40.920Z,80.57
2023-04-02T10:52:40.918Z,80.78
2023-04-02T10:53:40.890Z,80.54
2023-04-02T10:54:40.933Z,80.43
2023-04-02T10:55:40.904Z,79.54
2023-04-02T10:56:50.750Z,80.16
2023-04-02T10:57:42.886Z,79.64
2023-04-02T10:58:40.841Z,79.64
2023-04-02T10:59:40.833Z,80.05
2023-04-02T11:00:40.833Z,79.64
2023-04-02T11:01:40.862Z,79.33
2023-04-02T11:02:40.960Z,79.54
2023-04-02T11:03:40.979Z,79.60
2023-04-02T11:04:40.787Z,79.60
2023-04-02T11:05:40.776Z,79.13
2023-04-02T11:06:40.752Z,79.13
2023-04-02T11:07:40.763Z,79.27
2023-04-02T11:08:40.734Z,79.16
2023-04-02T11:09:40.718Z,79.23
2023-04-02T11:10:40.727Z,79.33
2023-04-02T11:11:40.693Z,79.33
2023-04-02T11:12:42.026Z,79.23
2023-04-02T11:13:41.672Z,79.13
2023-04-02T11:14:40.718Z,78.40
2023-04-02T11:15:40.662Z,78.61
2023-04-02T11:16:43.943Z,78.33
2023-04-02T11:17:41.692Z,77.78
2023-04-02T11:18:40.622Z,77.98
2023-04-02T11:19:40.694Z,77.57
2023-04-02T11:20:40.630Z,77.88
2023-04-02T11:21:51.423Z,77.98
2023-04-02T11:22:42.602Z,77.43
2023-04-02T11:23:40.558Z,77.47
2023-04-02T11:24:40.556Z,77.15
2023-04-02T11:25:40.544Z,76.74
2023-04-02T11:26:40.558Z,76.64
2023-04-02T11:27:40.527Z,76.64
2023-04-02T11:28:40.537Z,76.74
2023-04-02T11:29:40.497Z,77.36
2023-04-02T11:30:40.494Z,77.47
2023-04-02T11:31:40.498Z,76.71
2023-04-02T11:32:40.591Z,77.64
2023-04-02T11:33:43.399Z,77.43
2023-04-02T11:34:41.444Z,78.02
2023-04-02T11:35:40.623Z,77.39
2023-04-02T11:36:40.428Z,76.98
2023-04-02T11:37:40.414Z,77.22
2023-04-02T11:38:40.416Z,76.71
2023-04-02T11:39:40.387Z,75.57
2023-04-02T11:40:40.397Z,75.46
2023-04-02T11:41:40.359Z,74.74
2023-04-02T11:42:40.359Z,74.32
2023-04-02T11:43:40.372Z,74.74
2023-04-02T11:44:40.341Z,74.50
2023-04-02T11:45:51.838Z,73.46
2023-04-02T11:46:42.403Z,73.91
2023-04-02T11:47:40.359Z,73.57
2023-04-02T11:48:40.321Z,72.64
2023-04-02T11:49:40.344Z,72.43
2023-04-02T11:50:40.284Z,71.60
2023-04-02T11:51:40.288Z,71.36
2023-04-02T11:52:40.251Z,71.70
2023-04-02T11:53:40.266Z,72.39
2023-04-02T11:54:40.229Z,72.88
2023-04-02T11:55:40.222Z,72.67
2023-04-02T11:56:40.213Z,70.40
2023-04-02T11:57:40.237Z,69.26
2023-04-02T11:58:40.351Z,70.06
2023-04-02T11:59:40.176Z,70.26
2023-04-02T12:00:40.170Z,69.64
2023-04-02T12:01:40.203Z,68.43
2023-04-02T12:02:40.252Z,69.12
2023-04-02T12:03:40.174Z,69.23
2023-04-02T12:04:40.139Z,69.20
2023-04-02T12:05:40.215Z,69.71
2023-04-02T12:06:41.109Z,69.74
2023-04-02T12:07:40.093Z,69.82
2023-04-02T12:08:50.896Z,69.82
2023-04-02T12:09:42.074Z,69.92
2023-04-02T12:10:40.108Z,69.71
2023-04-02T12:11:40.075Z,69.51
2023-04-02T12:12:40.077Z,69.30
2023-04-02T12:13:40.082Z,69.51
2023-04-02T12:14:40.041Z,68.58
2023-04-02T12:15:40.014Z,67.85
2023-04-02T12:16:40.081Z,68.16
2023-04-02T12:17:40.058Z,68.78
2023-04-02T12:18:39.996Z,69.09
2023-04-02T12:19:39.976Z,67.96
2023-04-02T12:20:39.969Z,67.44
2023-04-02T12:21:39.959Z,66.48
2023-04-02T12:22:39.950Z,65.58
2023-04-02T12:23:39.950Z,66.30
2023-04-02T12:24:39.946Z,66.38
2023-04-02T12:25:40.960Z,66.69
2023-04-02T12:26:39.897Z,67.21
2023-04-02T12:27:39.898Z,67.10
2023-04-02T12:28:39.881Z,66.69
2023-04-02T12:29:39.898Z,66.58
2023-04-02T12:30:39.893Z,65.42
2023-04-02T12:31:39.859Z,65.18
2023-04-02T12:32:39.897Z,64.87
2023-04-02T12:33:39.841Z,65.18
2023-04-02T12:34:39.853Z,66.49
2023-04-02T12:35:39.860Z,65.25
2023-04-02T12:36:39.809Z,66.91
2023-04-02T12:37:39.799Z,66.60
2023-04-02T12:38:39.806Z,66.87
2023-04-02T12:39:39.797Z,64.64
2023-04-02T12:40:39.772Z,62.92
2023-04-02T12:41:39.780Z,62.43
2023-04-02T12:42:39.744Z,64.15
2023-04-02T12:43:39.757Z,64.25
2023-04-02T12:44:39.753Z,64.36
2023-04-02T12:45:39.712Z,64.98
2023-04-02T12:46:39.813Z,64.25
2023-04-02T12:47:39.722Z,64.64
2023-04-02T12:48:39.684Z,65.56
2023-04-02T12:49:39.696Z,62.88
2023-04-02T12:50:39.674Z,63.29
2023-04-02T12:51:39.665Z,64.19
2023-04-02T12:52:39.642Z,64.61
2023-04-02T12:53:39.669Z,64.47
2023-04-02T12:54:39.644Z,63.17